createdAt,value
2022-10-22T00:01:05.457Z,99.90
2022-10-22T00:03:32.228Z,99.90
2022-10-22T00:05:59.147Z,99.80
2022-10-22T00:08:25.961Z,99.80
2022-10-22T00:10:53.015Z,99.90
2022-10-22T00:13:20.089Z,99.70
2022-10-22T00:15:46.822Z,99.60
2022-10-22T00:18:13.622Z,99.60
2022-10-22T00:20:40.384Z,99.50
2022-10-22T00:23:07.132Z,99.90
2022-10-22T00:25:41.940Z,99.60
2022-10-22T00:28:08.731Z,99.50
2022-10-22T00:30:35.449Z,99.60
2022-10-22T00:33:02.226Z,99.40
2022-10-22T00:35:29.029Z,99.50
2022-10-22T00:37:55.706Z,99.40
2022-10-22T00:40:22.478Z,99.50
2022-10-22T00:42:49.233Z,99.70
2022-10-22T00:45:17.782Z,99.60
2022-10-22T00:47:48.538Z,99.50
2022-10-22T00:50:21.221Z,99.50
2022-10-22T00:52:48.065Z,99.40
2022-10-22T00:55:15.517Z,99.50
2022-10-22T00:57:42.786Z,99.60
2022-10-22T01:00:09.783Z,99.50
2022-10-22T01:02:36.563Z,99.30
2022-10-22T01:05:03.837Z,99.60
2022-10-22T01:07:30.765Z,99.40
2022-10-22T01:10:05.477Z,99.50
2022-10-22T01:12:32.148Z,99.40
2022-10-22T01:15:07.993Z,99.40
2022-10-22T01:17:40.973Z,99.40
2022-10-22T01:20:19.984Z,99.50
2022-10-22T01:23:05.447Z,99.50
2022-10-22T01:25:32.173Z,99.40
2022-10-22T01:27:58.843Z,99.40
2022-10-22T01:30:26.215Z,99.40
2022-10-22T01:32:55.733Z,99.40
2022-10-22T01:35:24.627Z,99.50
2022-10-22T01:37:54.203Z,99.40
2022-10-22T01:40:21.810Z,99.20
2022-10-22T01:42:58.903Z,99.50
2022-10-22T01:45:26.646Z,99.30
2022-10-22T01:48:11.820Z,99.40
2022-10-22T01:51:03.657Z,99.40
2022-10-22T01:53:35.496Z,99.20
2022-10-22T01:56:11.275Z,99.30
2022-10-22T01:58:56.706Z,99.40
2022-10-22T02:01:26.749Z,99.20
2022-10-22T02:04:01.654Z,99.40
2022-10-22T02:06:28.993Z,99.30
2022-10-22T02:08:56.315Z,99.30
2022-10-22T02:11:23.050Z,99.40
2022-10-22T02:13:52.712Z,99.50
2022-10-22T02:16:25.709Z,99.30
2022-10-22T02:18:54.238Z,99.30
2022-10-22T02:21:21.779Z,99.50
2022-10-22T02:23:48.552Z,99.50
2022-10-22T02:26:25.057Z,99.60
2022-10-22T02:29:07.534Z,99.40
2022-10-22T02:31:36.914Z,99.40
2022-10-22T02:34:05.553Z,99.40
2022-10-22T02:36:32.341Z,99.50
2022-10-22T02:38:59.247Z,99.50
2022-10-22T02:41:25.998Z,99.40
2022-10-22T02:43:54.544Z,99.40
2022-10-22T02:46:21.873Z,99.50
2022-10-22T02:48:48.785Z,99.40
2022-10-22T02:51:15.484Z,99.30
2022-10-22T02:53:42.267Z,99.50
2022-10-22T02:56:08.988Z,99.50
2022-10-22T02:58:35.684Z,99.50
2022-10-22T03:01:02.508Z,99.60
2022-10-22T03:03:29.292Z,99.50
2022-10-22T03:05:55.998Z,99.40
2022-10-22T03:08:22.779Z,99.40
2022-10-22T03:10:49.473Z,99.40
2022-10-22T03:13:16.150Z,99.50
2022-10-22T03:15:42.992Z,99.50
2022-10-22T03:18:09.727Z,99.30
2022-10-22T03:20:36.517Z,99.40
2022-10-22T03:23:03.382Z,99.50
2022-10-22T03:25:34.421Z,99.50
2022-10-22T03:28:07.136Z,99.60
2022-10-22T03:30:33.823Z,99.60
2022-10-22T03:33:00.512Z,99.50
2022-10-22T03:35:27.294Z,99.50
2022-10-22T03:37:54.315Z,99.50
2022-10-22T03:40:21.113Z,99.60
2022-10-22T03:42:47.917Z,99.50
2022-10-22T03:45:14.651Z,99.60
2022-10-22T03:47:41.663Z,99.60
2022-10-22T03:50:09.147Z,99.50
2022-10-22T03:52:37.347Z,99.50
2022-10-22T03:55:04.702Z,99.60
2022-10-22T03:57:31.717Z,99.50
2022-10-22T03:59:59.165Z,99.60
2022-10-22T04:02:26.085Z,99.60
2022-10-22T04:04:52.840Z,99.60
2022-10-22T04:07:19.563Z,99.50
2022-10-22T04:09:46.278Z,99.60
2022-10-22T04:12:13.029Z,99.60
2022-10-22T04:14:39.753Z,99.70
2022-10-22T04:17:06.609Z,99.70
2022-10-22T04:19:33.392Z,99.60
2022-10-22T04:22:00.456Z,99.60
2022-10-22T04:24:27.526Z,99.60
2022-10-22T04:26:55.168Z,99.60
2022-10-22T04:29:21.865Z,99.60
2022-10-22T04:31:48.664Z,99.40
2022-10-22T04:34:15.433Z,99.50
2022-10-22T04:36:42.163Z,99.60
2022-10-22T04:39:08.948Z,99.80
2022-10-22T04:41:37.209Z,99.60
2022-10-22T04:44:04.495Z,99.60
2022-10-22T04:46:32.488Z,99.60
2022-10-22T04:48:59.377Z,99.80
2022-10-22T04:51:26.898Z,99.60
2022-10-22T04:53:54.081Z,99.70
2022-10-22T04:56:22.170Z,99.80
2022-10-22T04:58:50.075Z,99.70
2022-10-22T05:01:18.480Z,99.50
2022-10-22T05:03:45.696Z,99.60
2022-10-22T05:08:44.719Z,99.70
2022-10-22T05:11:15.634Z,99.60
2022-10-22T05:13:42.369Z,99.80
2022-10-22T05:16:09.558Z,99.60
2022-10-22T05:18:43.960Z,99.60
2022-10-22T05:21:11.647Z,99.50
2022-10-22T05:23:38.786Z,99.50
2022-10-22T05:26:06.704Z,99.70
2022-10-22T05:28:34.280Z,99.60
2022-10-22T05:31:01.295Z,99.80
2022-10-22T05:33:28.945Z,99.60
2022-10-22T05:35:55.819Z,99.50
2022-10-22T05:38:22.728Z,99.70
2022-10-22T05:40:58.913Z,99.70
2022-10-22T05:43:25.606Z,99.50
2022-10-22T05:45:52.311Z,99.60
2022-10-22T05:48:19.099Z,99.80
2022-10-22T05:50:50.556Z,99.80
2022-10-22T05:53:18.475Z,99.80
2022-10-22T05:55:45.557Z,99.80
2022-10-22T05:58:12.755Z,99.80
2022-10-22T06:00:39.543Z,99.70
2022-10-22T06:03:06.351Z,99.70
2022-10-22T06:05:36.755Z,99.80
2022-10-22T06:08:03.552Z,99.90
2022-10-22T06:10:30.405Z,99.90
2022-10-22T06:12:57.095Z,99.80
2022-10-22T06:15:23.807Z,99.90
2022-10-22T06:17:50.781Z,99.80
2022-10-22T06:20:17.590Z,99.70
2022-10-22T06:22:44.439Z,99.70
2022-10-22T06:25:12.695Z,99.80
2022-10-22T06:27:39.419Z,99.80
2022-10-22T06:30:06.416Z,99.80
2022-10-22T06:32:33.225Z,99.80
2022-10-22T06:34:59.930Z,99.90
2022-10-22T06:37:26.684Z,99.80
2022-10-22T06:39:53.474Z,99.60
2022-10-22T06:42:20.174Z,99.90
2022-10-22T06:44:46.890Z,99.80
2022-10-22T06:47:13.717Z,99.90
2022-10-22T06:49:40.457Z,99.90
2022-10-22T06:52:07.179Z,99.80
2022-10-22T06:54:34.054Z,99.80
2022-10-22T06:57:00.744Z,99.70
2022-10-22T06:59:27.494Z,99.70
2022-10-22T07:01:54.287Z,99.70
2022-10-22T07:04:20.978Z,99.70
2022-10-22T07:06:47.746Z,99.80
2022-10-22T07:09:14.717Z,99.70
2022-10-22T07:11:45.785Z,99.70
2022-10-22T07:14:13.294Z,99.60
2022-10-22T07:16:43.071Z,99.60
2022-10-22T07:19:09.776Z,99.60
2022-10-22T07:21:36.680Z,99.60
2022-10-22T07:24:03.508Z,99.60
2022-10-22T07:26:32.503Z,99.60
2022-10-22T07:29:02.281Z,99.60
2022-10-22T07:31:29.067Z,99.70
2022-10-22T07:33:55.766Z,99.60
2022-10-22T07:36:22.471Z,99.50
2022-10-22T07:38:53.245Z,99.50
2022-10-22T07:41:19.976Z,99.60
2022-10-22T07:43:46.745Z,99.40
2022-10-22T07:46:13.715Z,99.50
2022-10-22T07:48:40.548Z,99.50
2022-10-22T07:51:07.557Z,99.50
2022-10-22T07:53:34.319Z,99.50
2022-10-22T07:56:01.094Z,99.50
2022-10-22T07:58:27.796Z,99.50
2022-10-22T08:00:58.547Z,99.40
2022-10-22T08:03:25.348Z,99.50
2022-10-22T08:05:52.322Z,99.30
2022-10-22T08:08:19.858Z,99.30
2022-10-22T08:10:47.187Z,99.30
2022-10-22T08:13:14.241Z,99.50
2022-10-22T08:15:42.416Z,99.50
2022-10-22T08:18:09.545Z,99.60
2022-10-22T08:20:36.288Z,99.20
2022-10-22T08:23:03.057Z,99.20
2022-10-22T08:25:29.780Z,99.20
2022-10-22T08:27:56.493Z,99.20
2022-10-22T08:30:23.379Z,99.10
2022-10-22T08:32:53.081Z,99.20
2022-10-22T08:35:20.849Z,99.00
2022-10-22T08:37:47.574Z,99.20
2022-10-22T08:40:20.171Z,98.80
2022-10-22T08:42:49.927Z,99.20
2022-10-22T08:45:35.278Z,98.90
2022-10-22T08:48:14.590Z,98.70
2022-10-22T08:50:52.405Z,98.80
2022-10-22T08:53:21.103Z,98.90
2022-10-22T08:55:49.921Z,98.70
2022-10-22T08:58:25.512Z,98.70
2022-10-22T09:00:59.738Z,98.90
2022-10-22T09:03:46.764Z,98.80
2022-10-22T09:06:15.034Z,98.70
2022-10-22T09:08:42.932Z,98.80
2022-10-22T09:11:12.468Z,99.00
2022-10-22T09:13:43.347Z,98.80
2022-10-22T09:16:19.086Z,98.80
2022-10-22T09:18:51.000Z,99.00
2022-10-22T09:21:40.730Z,98.80
2022-10-22T09:24:39.907Z,99.00
2022-10-22T09:27:26.830Z,98.90
2022-10-22T09:29:53.560Z,98.60
2022-10-22T09:32:20.558Z,98.80
2022-10-22T09:34:47.899Z,99.10
2022-10-22T09:37:16.883Z,99.20
2022-10-22T09:39:53.027Z,99.20
2022-10-22T09:42:20.565Z,99.30
2022-10-22T09:44:54.450Z,99.10
2022-10-22T09:47:49.935Z,99.20
2022-10-22T09:50:20.767Z,99.20
2022-10-22T09:53:16.908Z,99.30
2022-10-22T09:55:44.268Z,99.20
2022-10-22T09:58:11.957Z,99.30
2022-10-22T10:00:40.016Z,99.10
2022-10-22T10:03:06.858Z,99.10
2022-10-22T10:05:34.843Z,99.20
2022-10-22T10:08:27.945Z,99.30
2022-10-22T10:10:58.750Z,99.20
2022-10-22T10:13:28.606Z,99.30
2022-10-22T10:15:58.084Z,99.20
2022-10-22T10:18:38.851Z,99.20
2022-10-22T10:21:28.276Z,99.20
2022-10-22T10:24:03.454Z,99.40
2022-10-22T10:26:36.351Z,99.20
2022-10-22T10:29:03.060Z,99.20
2022-10-22T10:31:41.856Z,99.10
2022-10-22T10:34:27.266Z,99.40
2022-10-22T10:36:58.392Z,99.10
2022-10-22T10:39:34.312Z,99.20
2022-10-22T10:42:21.244Z,99.00
2022-10-22T10:44:50.971Z,99.20
2022-10-22T10:47:20.801Z,99.20
2022-10-22T10:49:47.698Z,99.20
2022-10-22T10:52:27.204Z,99.20
2022-10-22T10:55:09.121Z,99.20
2022-10-22T10:57:54.009Z,99.20
2022-10-22T11:00:21.266Z,99.20
2022-10-22T11:02:48.056Z,99.50
2022-10-22T11:05:33.385Z,99.30
2022-10-22T11:08:29.379Z,99.20
2022-10-22T11:10:56.101Z,99.40
2022-10-22T11:13:22.794Z,99.30
2022-10-22T11:15:59.527Z,99.30
2022-10-22T11:18:32.876Z,99.30
2022-10-22T11:21:17.835Z,99.20
2022-10-22T11:23:46.590Z,99.40
2022-10-22T11:26:22.171Z,99.00
2022-10-22T11:28:51.410Z,99.30
2022-10-22T11:31:18.422Z,99.30
2022-10-22T11:34:05.121Z,99.20
2022-10-22T11:36:37.195Z,99.30
2022-10-22T11:39:04.505Z,99.20
2022-10-22T11:41:32.861Z,99.30
2022-10-22T11:43:59.661Z,99.10
2022-10-22T11:46:38.879Z,99.20
2022-10-22T11:49:17.482Z,99.30
2022-10-22T11:51:44.995Z,99.20
2022-10-22T11:54:32.019Z,99.30
2022-10-22T11:57:17.151Z,99.50
2022-10-22T11:59:46.889Z,99.00
2022-10-22T12:02:28.869Z,99.40
2022-10-22T12:04:56.744Z,99.30
2022-10-22T12:07:50.814Z,99.20
2022-10-22T12:10:21.934Z,99.20
2022-10-22T12:12:58.723Z,99.30
2022-10-22T12:15:28.758Z,99.30
2022-10-22T12:18:02.903Z,99.30
2022-10-22T12:20:30.077Z,99.30
2022-10-22T12:22:57.970Z,99.30
2022-10-22T12:25:26.256Z,99.30
2022-10-22T12:27:54.900Z,99.50
2022-10-22T12:30:23.716Z,99.20
2022-10-22T12:33:00.486Z,99.30
2022-10-22T12:35:29.061Z,99.40
2022-10-22T12:37:57.631Z,99.30
2022-10-22T12:40:31.933Z,99.40
2022-10-22T12:43:00.134Z,99.30
2022-10-22T12:45:31.419Z,99.30
2022-10-22T12:47:59.543Z,99.40
2022-10-22T12:50:46.458Z,99.40
2022-10-22T12:53:37.919Z,99.40
2022-10-22T12:56:11.734Z,99.40
2022-10-22T12:58:39.968Z,99.40
2022-10-22T13:01:06.773Z,99.50
2022-10-22T13:03:40.393Z,99.40
2022-10-22T13:06:13.290Z,99.40
2022-10-22T13:08:40.416Z,99.50
2022-10-22T13:11:09.374Z,99.40
2022-10-22T13:13:39.224Z,99.40
2022-10-22T13:16:16.659Z,99.30
2022-10-22T13:18:44.002Z,99.40
2022-10-22T13:21:22.263Z,99.40
2022-10-22T13:24:12.302Z,99.40
2022-10-22T13:26:39.098Z,99.20
2022-10-22T13:29:12.454Z,99.40
2022-10-22T13:31:44.825Z,99.50
2022-10-22T13:34:17.093Z,99.40
2022-10-22T13:36:43.997Z,99.70
2022-10-22T13:39:18.299Z,99.50
2022-10-22T13:41:45.208Z,99.50
2022-10-22T13:44:12.021Z,99.60
2022-10-22T13:46:42.837Z,99.50
2022-10-22T13:49:14.791Z,99.40
2022-10-22T13:51:42.495Z,99.30
2022-10-22T13:54:20.024Z,99.60
2022-10-22T13:56:46.905Z,99.60
2022-10-22T13:59:13.604Z,99.50
2022-10-22T14:01:40.624Z,99.50
2022-10-22T14:04:08.186Z,99.50
2022-10-22T14:09:11.389Z,99.50
2022-10-22T14:11:38.197Z,99.50
2022-10-22T14:14:08.705Z,99.50
2022-10-22T14:16:37.092Z,99.60
2022-10-22T14:19:04.589Z,99.80
2022-10-22T14:21:33.950Z,99.60
2022-10-22T14:24:00.725Z,99.70
2022-10-22T14:26:31.423Z,99.50
2022-10-22T14:29:14.142Z,99.50
2022-10-22T14:31:42.209Z,99.60
2022-10-22T14:34:13.472Z,99.30
2022-10-22T14:36:40.264Z,99.40
2022-10-22T14:39:07.056Z,99.60
2022-10-22T14:41:33.801Z,99.60
2022-10-22T14:44:00.725Z,99.70
2022-10-22T14:46:27.623Z,99.60
2022-10-22T14:48:54.296Z,99.60
2022-10-22T14:51:21.382Z,99.60
2022-10-22T14:53:48.429Z,99.60
2022-10-22T14:56:16.564Z,99.60
2022-10-22T14:58:43.650Z,99.50
2022-10-22T15:01:10.709Z,99.50
2022-10-22T15:03:37.503Z,99.50
2022-10-22T15:06:04.658Z,99.80
2022-10-22T15:08:31.989Z,99.60
2022-10-22T15:11:03.168Z,99.50
2022-10-22T15:13:30.232Z,99.60
2022-10-22T15:15:57.587Z,99.60
2022-10-22T15:18:24.922Z,99.80
2022-10-22T15:20:55.534Z,99.80
2022-10-22T15:23:22.656Z,98.90
2022-10-22T15:25:49.358Z,99.60
2022-10-22T15:28:16.050Z,99.60
2022-10-22T15:30:42.986Z,99.50
2022-10-22T15:33:10.831Z,99.80
2022-10-22T15:35:37.582Z,99.50
2022-10-22T15:38:06.646Z,99.70
2022-10-22T15:40:33.421Z,99.70
2022-10-22T15:43:00.103Z,99.70
2022-10-22T15:45:27.149Z,99.70
2022-10-22T15:47:53.879Z,99.40
2022-10-22T15:50:20.643Z,99.70
2022-10-22T15:52:47.931Z,99.70
2022-10-22T15:55:14.830Z,99.70
2022-10-22T15:57:41.741Z,99.60
2022-10-22T16:00:09.132Z,99.60
2022-10-22T16:02:36.431Z,99.70
2022-10-22T16:05:03.205Z,99.90
2022-10-22T16:07:30.131Z,99.70
2022-10-22T16:09:58.062Z,99.60
2022-10-22T16:12:24.878Z,99.60
2022-10-22T16:14:51.708Z,99.80
2022-10-22T16:17:18.588Z,99.80
2022-10-22T16:19:45.318Z,99.80
2022-10-22T16:22:13.850Z,99.70
2022-10-22T16:24:40.998Z,99.70
2022-10-22T16:27:08.337Z,99.80
2022-10-22T16:29:36.983Z,99.60
2022-10-22T16:32:03.775Z,99.80
2022-10-22T16:34:30.619Z,99.70
2022-10-22T16:36:57.413Z,99.70
2022-10-22T16:39:24.145Z,99.80
2022-10-22T16:41:51.785Z,99.50
2022-10-22T16:44:18.594Z,99.40
2022-10-22T16:46:45.364Z,99.40
2022-10-22T16:49:12.150Z,99.80
2022-10-22T16:51:39.396Z,99.90
2022-10-22T16:54:08.418Z,99.70
2022-10-22T16:56:38.160Z,99.90
2022-10-22T16:59:05.030Z,99.80
2022-10-22T17:01:32.689Z,99.90
2022-10-22T17:04:01.793Z,99.60
2022-10-22T17:06:28.945Z,99.60
2022-10-22T17:08:55.767Z,99.70
2022-10-22T17:11:23.525Z,99.80
2022-10-22T17:13:52.852Z,99.80
2022-10-22T17:16:20.918Z,99.70
2022-10-22T17:18:47.960Z,99.90
2022-10-22T17:21:15.511Z,99.90
2022-10-22T17:23:42.748Z,99.90
2022-10-22T17:26:13.167Z,99.80
2022-10-22T17:28:40.028Z,99.70
2022-10-22T17:31:11.830Z,99.90
2022-10-22T17:33:38.571Z,99.60
2022-10-22T17:36:10.915Z,99.90
2022-10-22T17:38:38.846Z,99.90
2022-10-22T17:41:07.488Z,99.70
2022-10-22T17:43:38.115Z,99.80
2022-10-22T17:46:10.833Z,99.80
2022-10-22T17:48:37.560Z,99.80
2022-10-22T17:51:07.677Z,99.80
2022-10-22T17:53:34.422Z,99.80
2022-10-22T17:56:02.707Z,99.90
2022-10-22T17:58:31.350Z,99.90
2022-10-22T18:00:58.313Z,99.90
2022-10-22T18:03:25.076Z,99.90
2022-10-22T18:05:51.880Z,99.90
2022-10-22T18:08:18.611Z,99.90
2022-10-22T18:10:45.371Z,99.80
2022-10-22T18:13:12.236Z,99.90
2022-10-22T18:15:38.966Z,99.60
2022-10-22T18:18:05.906Z,99.90
2022-10-22T18:20:32.814Z,99.90
2022-10-22T18:22:59.524Z,99.90
2022-10-22T18:25:26.298Z,99.80
2022-10-22T18:27:53.136Z,99.90
2022-10-22T18:30:19.837Z,99.90
2022-10-22T18:32:46.576Z,99.60
2022-10-22T18:35:13.338Z,99.90
2022-10-22T18:37:40.369Z,99.90
2022-10-22T18:40:10.417Z,99.90
2022-10-22T18:42:39.900Z,99.80
2022-10-22T18:45:07.058Z,99.60
2022-10-22T18:47:33.751Z,99.70
2022-10-22T18:50:00.495Z,99.90
2022-10-22T18:52:27.206Z,99.80
2022-10-22T18:54:54.391Z,99.80
2022-10-22T18:57:21.264Z,99.90
2022-10-22T18:59:47.990Z,99.80
2022-10-22T19:02:17.180Z,99.90
2022-10-22T19:04:44.256Z,99.90
2022-10-22T19:07:12.230Z,99.90
2022-10-22T19:09:39.866Z,99.80
2022-10-22T19:12:06.861Z,99.90
2022-10-22T19:14:33.641Z,99.90
2022-10-22T19:17:00.371Z,99.90
2022-10-22T19:19:27.137Z,99.90
2022-10-22T19:21:56.475Z,99.70
2022-10-22T19:24:23.289Z,99.90
2022-10-22T19:26:50.248Z,99.90
2022-10-22T19:29:18.028Z,99.90
2022-10-22T19:31:44.778Z,99.80
2022-10-22T19:34:11.529Z,99.90
2022-10-22T19:36:38.298Z,99.90
2022-10-22T19:39:05.714Z,99.80
2022-10-22T19:41:33.058Z,99.60
2022-10-22T19:44:00.498Z,99.90
2022-10-22T19:46:28.167Z,99.80
2022-10-22T19:48:57.363Z,99.80
2022-10-22T19:51:25.691Z,99.90
2022-10-22T19:53:57.395Z,99.90
2022-10-22T19:56:24.117Z,99.80
2022-10-22T19:58:50.810Z,99.80
2022-10-22T20:01:19.147Z,99.80
2022-10-22T20:03:46.414Z,99.80
2022-10-22T20:06:14.216Z,99.80
2022-10-22T20:08:41.029Z,99.60
2022-10-22T20:11:09.301Z,99.90
2022-10-22T20:13:36.583Z,99.80
2022-10-22T20:16:03.562Z,99.70
2022-10-22T20:18:30.337Z,99.70
2022-10-22T20:20:57.055Z,99.70
2022-10-22T20:23:23.855Z,99.80
2022-10-22T20:25:50.606Z,99.70
2022-10-22T20:28:17.333Z,99.70
2022-10-22T20:30:44.905Z,99.70
2022-10-22T20:33:11.693Z,99.70
2022-10-22T20:35:38.711Z,99.80
2022-10-22T20:38:06.183Z,99.80
2022-10-22T20:40:33.308Z,99.70
2022-10-22T20:43:00.407Z,99.70
2022-10-22T20:45:27.626Z,99.70
2022-10-22T20:48:02.015Z,99.70
2022-10-22T20:50:31.424Z,99.70
2022-10-22T20:52:58.671Z,99.70
2022-10-22T20:55:25.631Z,99.70
2022-10-22T20:57:52.380Z,99.80
2022-10-22T21:00:19.102Z,99.60
2022-10-22T21:02:45.895Z,99.80
2022-10-22T21:05:12.687Z,99.80
2022-10-22T21:07:39.574Z,99.80
2022-10-22T21:10:06.722Z,99.80
2022-10-22T21:12:33.490Z,99.80
2022-10-22T21:15:00.212Z,99.70
2022-10-22T21:17:26.914Z,99.80
2022-10-22T21:19:53.644Z,99.80
2022-10-22T21:22:20.355Z,99.60
2022-10-22T21:24:47.116Z,99.90
2022-10-22T21:27:13.847Z,99.90
2022-10-22T21:29:40.555Z,99.50
2022-10-22T21:32:07.332Z,99.70
2022-10-22T21:34:38.150Z,99.80
2022-10-22T21:37:05.888Z,99.90
2022-10-22T21:39:32.558Z,99.70
2022-10-22T21:41:59.437Z,99.70
2022-10-22T21:44:26.146Z,99.80
2022-10-22T21:46:52.881Z,99.90
2022-10-22T21:49:19.693Z,99.70
2022-10-22T21:51:46.463Z,99.80
2022-10-22T21:54:13.163Z,99.90
2022-10-22T21:56:40.596Z,99.80
2022-10-22T21:59:07.503Z,99.60
2022-10-22T22:01:34.727Z,99.80
2022-10-22T22:04:01.756Z,99.70
2022-10-22T22:06:30.725Z,99.60
2022-10-22T22:08:59.876Z,99.50
2022-10-22T22:11:27.728Z,99.70
2022-10-22T22:13:54.951Z,99.80
2022-10-22T22:16:27.133Z,99.70
2022-10-22T22:18:55.907Z,99.60
2022-10-22T22:21:22.667Z,99.70
2022-10-22T22:23:50.292Z,99.70
2022-10-22T22:26:18.803Z,99.80
2022-10-22T22:28:45.513Z,99.70
2022-10-22T22:31:35.674Z,99.80
2022-10-22T22:34:04.153Z,99.60
2022-10-22T22:36:35.283Z,99.80
2022-10-22T22:39:02.408Z,99.80
2022-10-22T22:41:29.097Z,99.90
2022-10-22T22:46:27.863Z,99.80
2022-10-22T22:48:54.673Z,99.70
2022-10-22T22:51:21.380Z,99.90
2022-10-22T22:53:48.153Z,99.80
2022-10-22T22:56:16.597Z,99.80
2022-10-22T22:58:43.705Z,99.80
2022-10-22T23:01:10.483Z,99.80
2022-10-22T23:03:37.251Z,99.90
2022-10-22T23:06:03.971Z,99.70
2022-10-22T23:08:30.838Z,99.90
2022-10-22T23:11:07.803Z,99.70
2022-10-22T23:13:35.304Z,99.80
2022-10-22T23:16:09.008Z,99.80
2022-10-22T23:18:36.078Z,99.80
2022-10-22T23:21:03.815Z,99.80
2022-10-22T23:23:30.953Z,99.90
2022-10-22T23:28:25.398Z,99.80
2022-10-22T23:30:52.078Z,99.70
2022-10-22T23:33:19.544Z,99.90
2022-10-22T23:35:46.325Z,99.70
2022-10-22T23:38:13.017Z,99.90
2022-10-22T23:40:39.848Z,99.70
2022-10-22T23:43:06.536Z,99.80
2022-10-22T23:45:33.878Z,99.80
2022-10-22T23:48:00.743Z,99.80
2022-10-22T23:50:27.480Z,99.80
2022-10-22T23:52:54.164Z,99.80
2022-10-22T23:55:21.055Z,99.80
2022-10-22T23:57:47.743Z,99.80
